• Join FlightAware (Why Join?)
  • Login
  • US Flag 
07:41AM EDT


 

Airport Tracker/Info


-or-


 

Live Flight TrackerFlight Track Log ✈ CDG4711 ✈ 01-Oct-2013 ✈ ZSQD / TAO - ZSWY / WUS

Flight Track Log - Related Links

Times and Time Zones

All times are in EDT time to prevent confusion due to time zone crossing. See the CDG4711 flight status page for this flight to view local times or setup timezone preferences in your user account.

Time Position Orientation Groundspeed Altitude Reporting Facility
EDT Latitude Longitude Course Direction KTS MPH feet Rate Location/Type
07:43PM 35.4978 120.1415 194° South  Level Estimated
07:44PM 35.4124 120.1159 194° South  Level Estimated
07:45PM 35.3270 120.0903 194° South  Level Estimated
07:46PM 35.2416 120.0648 194° South  Level Estimated
07:47PM 35.1562 120.0394 194° South  Level Estimated
07:48PM 35.0708 120.0140 194° South  Level Estimated
07:49PM 34.9854 119.9887 194° South  Level Estimated
07:50PM 34.9000 119.9634 194° South  Level Estimated
07:51PM 34.8145 119.9382 194° South  Level Estimated
07:52PM 34.7291 119.9130 194° South  Level Estimated
07:53PM 34.6437 119.8878 194° South  Level Estimated
07:54PM 34.5582 119.8628 194° South  Level Estimated
07:55PM 34.4728 119.8378 194° South  Level Estimated
07:56PM 34.3873 119.8128 194° South  Level Estimated
07:57PM 34.3019 119.7879 194° South  Level Estimated
07:58PM 34.2164 119.7630 194° South  Level Estimated
07:59PM 34.1309 119.7382 194° South  Level Estimated
08:00PM 34.0454 119.7134 194° South  Level Estimated
08:01PM 33.9600 119.6887 193° South  Level Estimated
08:02PM 33.8745 119.6640 193° South  Level Estimated
08:03PM 33.7890 119.6394 193° South  Level Estimated
08:04PM 33.7035 119.6148 193° South  Level Estimated
08:05PM 33.6180 119.5903 193° South  Level Estimated
08:06PM 33.5325 119.5658 193° South  Level Estimated
08:07PM 33.4470 119.5414 193° South  Level Estimated
08:08PM 33.3615 119.5170 193° South  Level Estimated
08:09PM 33.2760 119.4927 193° South  Level Estimated
08:10PM 33.1904 119.4684 193° South  Level Estimated
08:11PM 33.1049 119.4442 193° South  Level Estimated
08:12PM 33.0194 119.4200 193° South  Level Estimated
08:13PM 32.9338 119.3958 193° South  Level Estimated
08:14PM 32.8483 119.3717 193° South  Level Estimated
08:15PM 32.7627 119.3477 193° South  Level Estimated
08:16PM 32.6772 119.3237 193° South  Level Estimated
08:17PM 32.5916 119.2997 193° South  Level Estimated
08:18PM 32.5061 119.2758 193° South  Level Estimated
08:19PM 32.4205 119.2519 193° South  Level Estimated
08:20PM 32.3349 119.2281 193° South  Level Estimated
08:21PM 32.2494 119.2043 193° South  Level Estimated
08:22PM 32.1638 119.1806 193° South  Level Estimated
08:23PM 32.0782 119.1569 193° South  Level Estimated
08:24PM 31.9926 119.1333 193° South  Level Estimated
08:25PM 31.9070 119.1097 193° South  Level Estimated
08:26PM 31.8214 119.0861 193° South  Level Estimated
08:27PM 31.7358 119.0626 193° South  Level Estimated
08:28PM 31.6502 119.0391 193° South  Level Estimated
08:29PM 31.5646 119.0157 193° South  Level Estimated
08:30PM 31.4790 118.9923 193° South  Level Estimated
08:31PM 31.3934 118.9690 193° South  Level Estimated
08:32PM 31.3078 118.9457 193° South  Level Estimated
08:33PM 31.2221 118.9225 193° South  Level Estimated
08:34PM 31.1365 118.8992 193° South  Level Estimated
08:35PM 31.0509 118.8761 193° South  Level Estimated
08:36PM 30.9652 118.8530 193° South  Level Estimated
08:37PM 30.8796 118.8299 193° South  Level Estimated
08:38PM 30.7939 118.8068 193° South  Level Estimated
08:39PM 30.7083 118.7838 193° South  Level Estimated
08:40PM 30.6226 118.7608 193° South  Level Estimated
08:41PM 30.5370 118.7379 193° South  Level Estimated
08:42PM 30.4513 118.7150 193° South  Level Estimated
08:43PM 30.3657 118.6922 193° South  Level Estimated
08:44PM 30.2800 118.6694 193° South  Level Estimated
08:45PM 30.1943 118.6467 193° South  Level Estimated
08:46PM 30.1086 118.6239 193° South  Level Estimated
08:47PM 30.0229 118.6012 193° South  Level Estimated
08:48PM 29.9373 118.5786 193° South  Level Estimated
08:49PM 29.8516 118.5560 193° South  Level Estimated
08:50PM 29.7659 118.5334 193° South  Level Estimated
08:51PM 29.6802 118.5109 193° South  Level Estimated
08:52PM 29.5945 118.4884 193° South  Level Estimated
08:53PM 29.5088 118.4660 193° South  Level Estimated
08:54PM 29.4231 118.4436 193° South  Level Estimated
08:55PM 29.3374 118.4212 193° South  Level Estimated
08:56PM 29.2516 118.3988 193° South  Level Estimated
08:57PM 29.1659 118.3765 193° South  Level Estimated
08:58PM 29.0802 118.3543 193° South  Level Estimated
08:59PM 28.9945 118.3320 193° South  Level Estimated
09:00PM 28.9087 118.3099 193° South  Level Estimated
09:01PM 28.8230 118.2877 193° South  Level Estimated
09:02PM 28.7373 118.2656 193° South  Level Estimated
09:03PM 28.6515 118.2435 193° South  Level Estimated
09:04PM 28.5658 118.2215 193° South  Level Estimated
09:05PM 28.4800 118.1994 193° South  Level Estimated
09:06PM 28.3943 118.1775 193° South  Level Estimated
09:07PM 28.3085 118.1555 193° South  Level Estimated
09:08PM 28.2227 118.1336 193° South  Level Estimated
09:09PM 28.1370 118.1118 193° South  Level Estimated
09:10PM 28.0512 118.0899 193° South  Level Estimated
09:11PM 27.9655 118.0681 193° South  Level Estimated
09:12PM 27.8797 118.0464 193° South  Level Estimated
09:13PM 27.7939 118.0247 193° South  Level Estimated
09:14PM 27.7081 118.0030 193° South  Level Estimated
09:15PM 27.7019 118.0014 193° South  Level Estimated
09:16PM 27.7019 118.0014 348° North  Level Estimated
09:17PM 27.7019 118.0014 348° North  Level Estimated
09:18PM 27.7019 118.0014 348° North  Level Estimated
09:19PM 27.7019 118.0014 348° North  Level Estimated
09:20PM 27.7019 118.0014 348° North  Level Estimated
09:21PM 27.7019 118.0014 348° North  Level Estimated
09:22PM 27.7019 118.0014 348° North  Level Estimated
09:23PM 27.7019 118.0014 348° North  Level Estimated
09:24PM 27.7019 118.0014 348° North  Level Estimated
09:25PM 27.7019 118.0014 348° North  Level Estimated
09:26PM 27.7019 118.0014 348° North  Level Estimated
09:27PM 27.7019 118.0014 348° North  Level Estimated
09:28PM 27.7019 118.0014 348° North  Level Estimated
09:29PM 27.7019 118.0014 348° North  Level Estimated